sensor_id;sensor_type;location;lat;lon;timestamp;temperature;humidity
23719;DHT22;43322;52.230;5.702;2022-11-11T00:00:49;9.90;99.90
23719;DHT22;43322;52.230;5.702;2022-11-11T00:03:15;9.90;99.90
23719;DHT22;43322;52.230;5.702;2022-11-11T00:05:42;9.90;99.90
23719;DHT22;43322;52.230;5.702;2022-11-11T00:08:09;9.90;99.90
23719;DHT22;43322;52.230;5.702;2022-11-11T00:10:37;9.80;99.90
23719;DHT22;43322;52.230;5.702;2022-11-11T00:13:05;9.90;99.90
23719;DHT22;43322;52.230;5.702;2022-11-11T00:15:35;9.90;99.90
23719;DHT22;43322;52.230;5.702;2022-11-11T00:18:02;9.90;99.90
23719;DHT22;43322;52.230;5.702;2022-11-11T00:20:46;9.90;99.90
23719;DHT22;43322;52.230;5.702;2022-11-11T00:23:30;9.90;99.90
23719;DHT22;43322;52.230;5.702;2022-11-11T00:26:16;9.90;99.90
23719;DHT22;43322;52.230;5.702;2022-11-11T00:28:43;10.00;99.90
23719;DHT22;43322;52.230;5.702;2022-11-11T00:31:12;10.00;99.90
23719;DHT22;43322;52.230;5.702;2022-11-11T00:33:40;10.00;99.90
23719;DHT22;43322;52.230;5.702;2022-11-11T00:36:07;10.10;99.90
23719;DHT22;43322;52.230;5.702;2022-11-11T00:38:33;10.10;99.90
23719;DHT22;43322;52.230;5.702;2022-11-11T00:41:13;10.10;99.90
23719;DHT22;43322;52.230;5.702;2022-11-11T00:43:43;10.10;99.90
23719;DHT22;43322;52.230;5.702;2022-11-11T00:46:10;10.20;99.90
23719;DHT22;43322;52.230;5.702;2022-11-11T00:48:54;10.20;99.90
23719;DHT22;43322;52.230;5.702;2022-11-11T00:51:38;10.10;99.90
23719;DHT22;43322;52.230;5.702;2022-11-11T00:54:06;10.20;99.90
23719;DHT22;43322;52.230;5.702;2022-11-11T00:56:32;10.20;99.90
23719;DHT22;43322;52.230;5.702;2022-11-11T00:59:02;10.20;99.90
23719;DHT22;43322;52.230;5.702;2022-11-11T01:01:29;10.20;99.90
23719;DHT22;43322;52.230;5.702;2022-11-11T01:03:57;10.10;99.90
23719;DHT22;43322;52.230;5.702;2022-11-11T01:06:24;10.20;99.90
23719;DHT22;43322;52.230;5.702;2022-11-11T01:08:51;10.30;99.90
23719;DHT22;43322;52.230;5.702;2022-11-11T01:11:19;10.30;99.90
23719;DHT22;43322;52.230;5.702;2022-11-11T01:13:46;10.30;99.90
23719;DHT22;43322;52.230;5.702;2022-11-11T01:16:16;10.30;99.90
23719;DHT22;43322;52.230;5.702;2022-11-11T01:18:43;10.30;99.90
23719;DHT22;43322;52.230;5.702;2022-11-11T01:21:12;10.30;99.90
23719;DHT22;43322;52.230;5.702;2022-11-11T01:23:41;10.30;99.90
23719;DHT22;43322;52.230;5.702;2022-11-11T01:26:11;10.40;99.90
23719;DHT22;43322;52.230;5.702;2022-11-11T01:28:38;10.40;99.90
23719;DHT22;43322;52.230;5.702;2022-11-11T01:31:07;10.40;99.90
23719;DHT22;43322;52.230;5.702;2022-11-11T01:33:36;10.40;99.90
23719;DHT22;43322;52.230;5.702;2022-11-11T01:36:05;10.40;99.90
23719;DHT22;43322;52.230;5.702;2022-11-11T01:38:33;10.50;99.90
23719;DHT22;43322;52.230;5.702;2022-11-11T01:40:59;10.50;99.90
23719;DHT22;43322;52.230;5.702;2022-11-11T01:43:46;10.50;99.90
23719;DHT22;43322;52.230;5.702;2022-11-11T01:46:20;10.50;99.90
23719;DHT22;43322;52.230;5.702;2022-11-11T01:48:53;10.50;99.90
23719;DHT22;43322;52.230;5.702;2022-11-11T01:51:43;10.50;99.90
23719;DHT22;43322;52.230;5.702;2022-11-11T01:54:15;10.50;99.90
23719;DHT22;43322;52.230;5.702;2022-11-11T01:56:46;10.50;99.90
23719;DHT22;43322;52.230;5.702;2022-11-11T01:59:15;10.50;99.90
23719;DHT22;43322;52.230;5.702;2022-11-11T02:01:43;11.00;99.90
23719;DHT22;43322;52.230;5.702;2022-11-11T02:04:12;10.60;99.90
23719;DHT22;43322;52.230;5.702;2022-11-11T02:07:05;10.50;99.90
23719;DHT22;43322;52.230;5.702;2022-11-11T02:09:33;10.60;99.90
23719;DHT22;43322;52.230;5.702;2022-11-11T02:12:04;10.50;99.90
23719;DHT22;43322;52.230;5.702;2022-11-11T02:15:01;10.50;99.90
23719;DHT22;43322;52.230;5.702;2022-11-11T02:17:30;10.50;99.90
23719;DHT22;43322;52.230;5.702;2022-11-11T02:20:00;10.50;99.90
23719;DHT22;43322;52.230;5.702;2022-11-11T02:22:35;10.50;99.90
23719;DHT22;43322;52.230;5.702;2022-11-11T02:25:07;10.50;99.90
23719;DHT22;43322;52.230;5.702;2022-11-11T02:27:37;10.50;99.90
23719;DHT22;43322;52.230;5.702;2022-11-11T02:30:07;10.50;99.90
23719;DHT22;43322;52.230;5.702;2022-11-11T02:32:40;10.50;99.90
23719;DHT22;43322;52.230;5.702;2022-11-11T02:35:12;10.50;99.90
23719;DHT22;43322;52.230;5.702;2022-11-11T02:37:42;10.50;99.90
23719;DHT22;43322;52.230;5.702;2022-11-11T02:40:13;10.50;99.90
23719;DHT22;43322;52.230;5.702;2022-11-11T02:42:40;10.50;99.90
23719;DHT22;43322;52.230;5.702;2022-11-11T02:45:06;10.50;99.90
23719;DHT22;43322;52.230;5.702;2022-11-11T02:47:33;10.50;99.90
23719;DHT22;43322;52.230;5.702;2022-11-11T02:50:00;10.50;99.90
23719;DHT22;43322;52.230;5.702;2022-11-11T02:52:27;10.40;99.90
23719;DHT22;43322;52.230;5.702;2022-11-11T02:54:54;10.40;99.90
23719;DHT22;43322;52.230;5.702;2022-11-11T02:57:22;10.40;99.90
23719;DHT22;43322;52.230;5.702;2022-11-11T02:59:49;10.50;99.90
23719;DHT22;43322;52.230;5.702;2022-11-11T03:02:16;10.40;99.90
23719;DHT22;43322;52.230;5.702;2022-11-11T03:04:43;10.40;99.90
23719;DHT22;43322;52.230;5.702;2022-11-11T03:07:09;10.50;99.90
23719;DHT22;43322;52.230;5.702;2022-11-11T03:09:36;10.50;99.90
23719;DHT22;43322;52.230;5.702;2022-11-11T03:12:03;10.50;99.90
23719;DHT22;43322;52.230;5.702;2022-11-11T03:14:32;10.40;99.90
23719;DHT22;43322;52.230;5.702;2022-11-11T03:16:58;10.50;99.90
23719;DHT22;43322;52.230;5.702;2022-11-11T03:19:42;10.50;99.90
23719;DHT22;43322;52.230;5.702;2022-11-11T03:22:09;10.50;99.90
23719;DHT22;43322;52.230;5.702;2022-11-11T03:24:35;10.40;99.90
23719;DHT22;43322;52.230;5.702;2022-11-11T03:27:20;10.50;99.90
23719;DHT22;43322;52.230;5.702;2022-11-11T03:29:48;10.40;99.90
23719;DHT22;43322;52.230;5.702;2022-11-11T03:32:14;10.30;99.90
23719;DHT22;43322;52.230;5.702;2022-11-11T03:34:41;10.30;99.90
23719;DHT22;43322;52.230;5.702;2022-11-11T03:37:09;10.20;99.90
23719;DHT22;43322;52.230;5.702;2022-11-11T03:39:54;10.20;99.90
23719;DHT22;43322;52.230;5.702;2022-11-11T03:42:20;10.30;99.90
23719;DHT22;43322;52.230;5.702;2022-11-11T03:44:49;10.20;99.90
23719;DHT22;43322;52.230;5.702;2022-11-11T03:47:15;10.20;99.90
23719;DHT22;43322;52.230;5.702;2022-11-11T03:49:42;10.30;99.90
23719;DHT22;43322;52.230;5.702;2022-11-11T03:52:11;10.30;99.90
23719;DHT22;43322;52.230;5.702;2022-11-11T03:54:38;10.30;99.90
23719;DHT22;43322;52.230;5.702;2022-11-11T03:57:05;10.30;99.90
23719;DHT22;43322;52.230;5.702;2022-11-11T03:59:51;10.40;99.90
23719;DHT22;43322;52.230;5.702;2022-11-11T04:02:17;10.20;99.90
23719;DHT22;43322;52.230;5.702;2022-11-11T04:05:01;10.30;99.90
23719;DHT22;43322;52.230;5.702;2022-11-11T04:07:54;10.20;99.90
23719;DHT22;43322;52.230;5.702;2022-11-11T04:10:38;10.20;99.90
23719;DHT22;43322;52.230;5.702;2022-11-11T04:13:05;10.20;99.90
23719;DHT22;43322;52.230;5.702;2022-11-11T04:15:51;10.20;99.90
23719;DHT22;43322;52.230;5.702;2022-11-11T04:18:32;10.20;99.90
23719;DHT22;43322;52.230;5.702;2022-11-11T04:21:17;10.20;99.90
23719;DHT22;43322;52.230;5.702;2022-11-11T04:24:01;10.20;99.90
23719;DHT22;43322;52.230;5.702;2022-11-11T04:26:48;10.30;99.90
23719;DHT22;43322;52.230;5.702;2022-11-11T04:29:14;10.20;99.90
23719;DHT22;43322;52.230;5.702;2022-11-11T04:31:58;10.20;99.90
23719;DHT22;43322;52.230;5.702;2022-11-11T04:34:44;10.20;99.90
23719;DHT22;43322;52.230;5.702;2022-11-11T04:37:11;10.20;99.90
23719;DHT22;43322;52.230;5.702;2022-11-11T04:39:38;10.10;99.90
23719;DHT22;43322;52.230;5.702;2022-11-11T04:42:23;10.20;99.90
23719;DHT22;43322;52.230;5.702;2022-11-11T04:44:50;10.30;99.90
23719;DHT22;43322;52.230;5.702;2022-11-11T04:47:36;10.20;99.90
23719;DHT22;43322;52.230;5.702;2022-11-11T04:50:04;10.20;99.90
23719;DHT22;43322;52.230;5.702;2022-11-11T04:52:31;10.20;99.90
23719;DHT22;43322;52.230;5.702;2022-11-11T04:54:58;10.20;99.90
23719;DHT22;43322;52.230;5.702;2022-11-11T04:57:44;10.30;99.90
23719;DHT22;43322;52.230;5.702;2022-11-11T05:00:12;11.00;99.90
23719;DHT22;43322;52.230;5.702;2022-11-11T05:02:41;10.20;99.90
23719;DHT22;43322;52.230;5.702;2022-11-11T05:05:26;10.20;99.90
23719;DHT22;43322;52.230;5.702;2022-11-11T05:07:53;10.20;99.90
23719;DHT22;43322;52.230;5.702;2022-11-11T05:10:37;10.10;99.90
23719;DHT22;43322;52.230;5.702;2022-11-11T05:13:04;10.80;99.90
23719;DHT22;43322;52.230;5.702;2022-11-11T05:15:49;10.10;99.90
23719;DHT22;43322;52.230;5.702;2022-11-11T05:18:33;10.10;99.90
23719;DHT22;43322;52.230;5.702;2022-11-11T05:21:20;10.00;99.90
23719;DHT22;43322;52.230;5.702;2022-11-11T05:23:48;10.00;99.90
23719;DHT22;43322;52.230;5.702;2022-11-11T05:26:32;10.00;99.90
23719;DHT22;43322;52.230;5.702;2022-11-11T05:28:59;9.80;99.90
23719;DHT22;43322;52.230;5.702;2022-11-11T05:31:26;10.20;99.90
23719;DHT22;43322;52.230;5.702;2022-11-11T05:33:54;10.10;99.90
23719;DHT22;43322;52.230;5.702;2022-11-11T05:36:21;10.10;99.90
23719;DHT22;43322;52.230;5.702;2022-11-11T05:38:48;10.10;99.90
23719;DHT22;43322;52.230;5.702;2022-11-11T05:41:14;10.00;99.90
23719;DHT22;43322;52.230;5.702;2022-11-11T05:43:41;10.10;99.90
23719;DHT22;43322;52.230;5.702;2022-11-11T05:46:08;10.10;99.90
23719;DHT22;43322;52.230;5.702;2022-11-11T05:48:34;10.10;99.90
23719;DHT22;43322;52.230;5.702;2022-11-11T05:51:22;10.10;99.90
23719;DHT22;43322;52.230;5.702;2022-11-11T05:53:54;10.10;99.90
23719;DHT22;43322;52.230;5.702;2022-11-11T05:56:21;10.00;99.90
23719;DHT22;43322;52.230;5.702;2022-11-11T05:58:47;10.10;99.90
23719;DHT22;43322;52.230;5.702;2022-11-11T06:01:14;10.10;99.90
23719;DHT22;43322;52.230;5.702;2022-11-11T06:03:41;10.00;99.90
23719;DHT22;43322;52.230;5.702;2022-11-11T06:06:08;10.00;99.90
23719;DHT22;43322;52.230;5.702;2022-11-11T06:08:36;10.10;99.90
23719;DHT22;43322;52.230;5.702;2022-11-11T06:11:03;10.10;99.90
23719;DHT22;43322;52.230;5.702;2022-11-11T06:13:30;10.00;99.90
23719;DHT22;43322;52.230;5.702;2022-11-11T06:15:57;10.20;99.90
23719;DHT22;43322;52.230;5.702;2022-11-11T06:18:24;10.10;99.90
23719;DHT22;43322;52.230;5.702;2022-11-11T06:20:52;10.10;99.90
23719;DHT22;43322;52.230;5.702;2022-11-11T06:23:18;10.10;99.90
23719;DHT22;43322;52.230;5.702;2022-11-11T06:25:47;10.10;99.90
23719;DHT22;43322;52.230;5.702;2022-11-11T06:28:32;10.00;99.90
23719;DHT22;43322;52.230;5.702;2022-11-11T06:30:59;10.10;99.90
23719;DHT22;43322;52.230;5.702;2022-11-11T06:33:25;10.00;99.90
23719;DHT22;43322;52.230;5.702;2022-11-11T06:35:52;10.00;99.90
23719;DHT22;43322;52.230;5.702;2022-11-11T06:38:19;10.10;99.90
23719;DHT22;43322;52.230;5.702;2022-11-11T06:40:48;10.10;99.90
23719;DHT22;43322;52.230;5.702;2022-11-11T06:43:14;10.10;99.90
23719;DHT22;43322;52.230;5.702;2022-11-11T06:45:41;10.00;99.90
23719;DHT22;43322;52.230;5.702;2022-11-11T06:48:08;9.90;99.90
23719;DHT22;43322;52.230;5.702;2022-11-11T06:50:35;9.90;99.90
23719;DHT22;43322;52.230;5.702;2022-11-11T06:53:06;9.90;99.90
23719;DHT22;43322;52.230;5.702;2022-11-11T06:55:33;9.90;99.90
23719;DHT22;43322;52.230;5.702;2022-11-11T06:58:08;9.90;99.90
23719;DHT22;43322;52.230;5.702;2022-11-11T07:00:36;9.90;99.90
23719;DHT22;43322;52.230;5.702;2022-11-11T07:03:03;9.80;99.90
23719;DHT22;43322;52.230;5.702;2022-11-11T07:05:31;9.80;99.90
23719;DHT22;43322;52.230;5.702;2022-11-11T07:08:00;9.70;99.90
23719;DHT22;43322;52.230;5.702;2022-11-11T07:10:27;9.70;99.90
23719;DHT22;43322;52.230;5.702;2022-11-11T07:12:54;9.70;99.90
23719;DHT22;43322;52.230;5.702;2022-11-11T07:15:22;9.70;99.90
23719;DHT22;43322;52.230;5.702;2022-11-11T07:17:49;9.80;99.90
23719;DHT22;43322;52.230;5.702;2022-11-11T07:20:16;9.80;99.90
23719;DHT22;43322;52.230;5.702;2022-11-11T07:22:42;9.80;99.90
23719;DHT22;43322;52.230;5.702;2022-11-11T07:25:09;9.70;99.90
23719;DHT22;43322;52.230;5.702;2022-11-11T07:27:36;9.90;99.90
23719;DHT22;43322;52.230;5.702;2022-11-11T07:30:04;9.90;99.90
23719;DHT22;43322;52.230;5.702;2022-11-11T07:32:33;9.80;99.90
23719;DHT22;43322;52.230;5.702;2022-11-11T07:35:00;9.90;99.90
23719;DHT22;43322;52.230;5.702;2022-11-11T07:37:27;9.80;99.90
23719;DHT22;43322;52.230;5.702;2022-11-11T07:39:53;9.80;99.90
23719;DHT22;43322;52.230;5.702;2022-11-11T07:42:20;9.80;99.90
23719;DHT22;43322;52.230;5.702;2022-11-11T07:44:47;9.80;99.90
23719;DHT22;43322;52.230;5.702;2022-11-11T07:47:14;9.80;99.90
23719;DHT22;43322;52.230;5.702;2022-11-11T07:49:42;9.80;99.90
23719;DHT22;43322;52.230;5.702;2022-11-11T07:52:08;9.80;99.90
23719;DHT22;43322;52.230;5.702;2022-11-11T07:54:35;9.80;99.90
23719;DHT22;43322;52.230;5.702;2022-11-11T07:57:02;9.80;99.90
23719;DHT22;43322;52.230;5.702;2022-11-11T07:59:29;9.80;99.90
23719;DHT22;43322;52.230;5.702;2022-11-11T08:01:55;9.70;99.90
23719;DHT22;43322;52.230;5.702;2022-11-11T08:04:22;9.70;99.90
23719;DHT22;43322;52.230;5.702;2022-11-11T08:06:50;9.70;99.90
23719;DHT22;43322;52.230;5.702;2022-11-11T08:09:17;9.70;99.90
23719;DHT22;43322;52.230;5.702;2022-11-11T08:11:44;9.80;99.90
23719;DHT22;43322;52.230;5.702;2022-11-11T08:14:28;9.80;99.90
23719;DHT22;43322;52.230;5.702;2022-11-11T08:16:55;9.80;99.90
23719;DHT22;43322;52.230;5.702;2022-11-11T08:19:21;9.90;99.90
23719;DHT22;43322;52.230;5.702;2022-11-11T08:21:50;9.90;99.90
23719;DHT22;43322;52.230;5.702;2022-11-11T08:24:17;9.80;99.90
23719;DHT22;43322;52.230;5.702;2022-11-11T08:26:44;9.80;99.90
23719;DHT22;43322;52.230;5.702;2022-11-11T08:29:11;9.90;99.90
23719;DHT22;43322;52.230;5.702;2022-11-11T08:31:38;9.80;99.90
23719;DHT22;43322;52.230;5.702;2022-11-11T08:34:05;9.80;99.90
23719;DHT22;43322;52.230;5.702;2022-11-11T08:36:32;9.80;99.90
23719;DHT22;43322;52.230;5.702;2022-11-11T08:39:00;9.80;99.90
23719;DHT22;43322;52.230;5.702;2022-11-11T08:41:27;9.90;99.90
23719;DHT22;43322;52.230;5.702;2022-11-11T08:43:54;10.00;99.90
23719;DHT22;43322;52.230;5.702;2022-11-11T08:46:22;9.90;99.90
23719;DHT22;43322;52.230;5.702;2022-11-11T08:48:49;9.90;99.90
23719;DHT22;43322;52.230;5.702;2022-11-11T08:51:16;9.80;99.90
23719;DHT22;43322;52.230;5.702;2022-11-11T08:53:43;9.90;99.90
23719;DHT22;43322;52.230;5.702;2022-11-11T08:56:11;9.80;99.90
23719;DHT22;43322;52.230;5.702;2022-11-11T08:58:37;10.00;99.90
23719;DHT22;43322;52.230;5.702;2022-11-11T09:01:09;9.90;99.90
23719;DHT22;43322;52.230;5.702;2022-11-11T09:03:38;10.00;99.90
23719;DHT22;43322;52.230;5.702;2022-11-11T09:06:05;10.00;99.90
23719;DHT22;43322;52.230;5.702;2022-11-11T09:08:32;9.90;99.90
23719;DHT22;43322;52.230;5.702;2022-11-11T09:10:59;9.90;99.90
23719;DHT22;43322;52.230;5.702;2022-11-11T09:13:27;9.90;99.90
23719;DHT22;43322;52.230;5.702;2022-11-11T09:15:54;9.90;99.90
23719;DHT22;43322;52.230;5.702;2022-11-11T09:18:21;10.00;99.90
23719;DHT22;43322;52.230;5.702;2022-11-11T09:20:47;9.90;99.90
23719;DHT22;43322;52.230;5.702;2022-11-11T09:23:15;9.90;99.90
23719;DHT22;43322;52.230;5.702;2022-11-11T09:25:42;9.80;99.90
23719;DHT22;43322;52.230;5.702;2022-11-11T09:28:08;9.80;99.90
23719;DHT22;43322;52.230;5.702;2022-11-11T09:30:36;9.80;99.90
23719;DHT22;43322;52.230;5.702;2022-11-11T09:33:03;9.90;99.90
23719;DHT22;43322;52.230;5.702;2022-11-11T09:35:30;9.90;99.90
23719;DHT22;43322;52.230;5.702;2022-11-11T09:37:58;10.00;99.90
23719;DHT22;43322;52.230;5.702;2022-11-11T09:40:28;10.00;99.90
23719;DHT22;43322;52.230;5.702;2022-11-11T09:43:08;9.90;99.90
23719;DHT22;43322;52.230;5.702;2022-11-11T09:45:44;9.90;99.90
23719;DHT22;43322;52.230;5.702;2022-11-11T09:48:28;9.90;99.90
23719;DHT22;43322;52.230;5.702;2022-11-11T09:51:02;9.90;99.90
23719;DHT22;43322;52.230;5.702;2022-11-11T09:53:33;9.90;99.90
23719;DHT22;43322;52.230;5.702;2022-11-11T09:56:06;10.00;99.90
23719;DHT22;43322;52.230;5.702;2022-11-11T09:58:38;10.00;99.90
23719;DHT22;43322;52.230;5.702;2022-11-11T10:01:11;10.10;99.90
23719;DHT22;43322;52.230;5.702;2022-11-11T10:03:40;10.20;99.90
23719;DHT22;43322;52.230;5.702;2022-11-11T10:06:14;10.20;99.90
23719;DHT22;43322;52.230;5.702;2022-11-11T10:08:47;10.20;99.90
23719;DHT22;43322;52.230;5.702;2022-11-11T10:11:19;10.30;99.90
23719;DHT22;43322;52.230;5.702;2022-11-11T10:13:48;10.40;99.90
23719;DHT22;43322;52.230;5.702;2022-11-11T10:16:22;10.40;99.90
23719;DHT22;43322;52.230;5.702;2022-11-11T10:19:01;10.40;99.90
23719;DHT22;43322;52.230;5.702;2022-11-11T10:21:36;10.30;99.90
23719;DHT22;43322;52.230;5.702;2022-11-11T10:24:12;10.40;99.90
23719;DHT22;43322;52.230;5.702;2022-11-11T10:26:43;10.40;99.90
23719;DHT22;43322;52.230;5.702;2022-11-11T10:29:13;10.50;99.90
23719;DHT22;43322;52.230;5.702;2022-11-11T10:31:45;10.60;99.90
23719;DHT22;43322;52.230;5.702;2022-11-11T10:34:15;10.70;99.90
23719;DHT22;43322;52.230;5.702;2022-11-11T10:36:45;10.70;99.90
23719;DHT22;43322;52.230;5.702;2022-11-11T10:39:16;10.80;99.90
23719;DHT22;43322;52.230;5.702;2022-11-11T10:41:47;11.00;99.90
23719;DHT22;43322;52.230;5.702;2022-11-11T10:44:18;11.20;99.90
23719;DHT22;43322;52.230;5.702;2022-11-11T10:46:55;11.30;99.90
23719;DHT22;43322;52.230;5.702;2022-11-11T10:49:26;11.30;99.90
23719;DHT22;43322;52.230;5.702;2022-11-11T10:52:00;11.40;99.90
23719;DHT22;43322;52.230;5.702;2022-11-11T10:54:32;11.50;99.90
23719;DHT22;43322;52.230;5.702;2022-11-11T10:57:03;11.70;99.90
23719;DHT22;43322;52.230;5.702;2022-11-11T10:59:39;11.80;99.90
23719;DHT22;43322;52.230;5.702;2022-11-11T11:02:15;12.10;99.90
23719;DHT22;43322;52.230;5.702;2022-11-11T11:04:48;12.70;99.90
23719;DHT22;43322;52.230;5.702;2022-11-11T11:07:20;12.70;99.90
23719;DHT22;43322;52.230;5.702;2022-11-11T11:09:51;13.00;99.90
23719;DHT22;43322;52.230;5.702;2022-11-11T11:12:25;13.30;99.90
23719;DHT22;43322;52.230;5.702;2022-11-11T11:14:59;13.70;99.90
23719;DHT22;43322;52.230;5.702;2022-11-11T11:17:34;13.70;99.90
23719;DHT22;43322;52.230;5.702;2022-11-11T11:20:11;13.80;99.90
23719;DHT22;43322;52.230;5.702;2022-11-11T11:22:48;14.00;99.90
23719;DHT22;43322;52.230;5.702;2022-11-11T11:25:16;14.40;99.90
23719;DHT22;43322;52.230;5.702;2022-11-11T11:27:44;14.10;99.90
23719;DHT22;43322;52.230;5.702;2022-11-11T11:30:14;13.90;99.90
23719;DHT22;43322;52.230;5.702;2022-11-11T11:32:55;13.70;99.90
23719;DHT22;43322;52.230;5.702;2022-11-11T11:35:31;13.90;99.90
23719;DHT22;43322;52.230;5.702;2022-11-11T11:37:58;13.80;99.90
23719;DHT22;43322;52.230;5.702;2022-11-11T11:40:25;13.90;99.90
23719;DHT22;43322;52.230;5.702;2022-11-11T11:42:53;14.20;99.90
23719;DHT22;43322;52.230;5.702;2022-11-11T11:45:22;14.60;99.90
23719;DHT22;43322;52.230;5.702;2022-11-11T11:48:04;14.80;99.90
23719;DHT22;43322;52.230;5.702;2022-11-11T11:50:40;14.90;99.90
23719;DHT22;43322;52.230;5.702;2022-11-11T11:53:24;15.40;99.90
23719;DHT22;43322;52.230;5.702;2022-11-11T11:55:55;15.50;99.90
23719;DHT22;43322;52.230;5.702;2022-11-11T11:58:35;15.30;99.90
23719;DHT22;43322;52.230;5.702;2022-11-11T12:01:10;15.80;99.90
23719;DHT22;43322;52.230;5.702;2022-11-11T12:06:46;15.70;99.90
23719;DHT22;43322;52.230;5.702;2022-11-11T12:09:24;15.70;99.90
23719;DHT22;43322;52.230;5.702;2022-11-11T12:11:58;15.40;99.90
23719;DHT22;43322;52.230;5.702;2022-11-11T12:14:44;15.40;99.90
23719;DHT22;43322;52.230;5.702;2022-11-11T12:17:25;15.00;99.90
23719;DHT22;43322;52.230;5.702;2022-11-11T12:19:59;15.00;99.90
23719;DHT22;43322;52.230;5.702;2022-11-11T12:22:35;14.80;99.90
23719;DHT22;43322;52.230;5.702;2022-11-11T12:25:12;14.60;99.90
23719;DHT22;43322;52.230;5.702;2022-11-11T12:27:51;14.30;99.90
23719;DHT22;43322;52.230;5.702;2022-11-11T12:30:22;14.00;99.90
23719;DHT22;43322;52.230;5.702;2022-11-11T12:33:25;14.00;99.90
23719;DHT22;43322;52.230;5.702;2022-11-11T12:36:09;13.70;99.90
23719;DHT22;43322;52.230;5.702;2022-11-11T12:38:56;13.50;99.90
23719;DHT22;43322;52.230;5.702;2022-11-11T12:41:26;13.20;99.90
23719;DHT22;43322;52.230;5.702;2022-11-11T12:44:02;13.10;99.90
23719;DHT22;43322;52.230;5.702;2022-11-11T12:46:39;12.90;99.90
23719;DHT22;43322;52.230;5.702;2022-11-11T12:49:30;13.00;99.90
23719;DHT22;43322;52.230;5.702;2022-11-11T12:52:10;13.10;99.90
23719;DHT22;43322;52.230;5.702;2022-11-11T12:54:51;13.10;99.90
23719;DHT22;43322;52.230;5.702;2022-11-11T12:57:24;12.90;99.90
23719;DHT22;43322;52.230;5.702;2022-11-11T13:00:03;13.00;99.90
23719;DHT22;43322;52.230;5.702;2022-11-11T13:02:53;13.10;99.90
23719;DHT22;43322;52.230;5.702;2022-11-11T13:05:28;13.20;99.90
23719;DHT22;43322;52.230;5.702;2022-11-11T13:10:55;13.20;99.90
23719;DHT22;43322;52.230;5.702;2022-11-11T13:13:42;13.30;99.90
23719;DHT22;43322;52.230;5.702;2022-11-11T13:16:10;13.30;99.90
23719;DHT22;43322;52.230;5.702;2022-11-11T13:18:44;13.30;99.90
23719;DHT22;43322;52.230;5.702;2022-11-11T13:21:15;13.40;99.90
23719;DHT22;43322;52.230;5.702;2022-11-11T13:23:44;13.50;99.90
23719;DHT22;43322;52.230;5.702;2022-11-11T13:26:22;13.50;99.90
23719;DHT22;43322;52.230;5.702;2022-11-11T13:28:55;13.40;99.90
23719;DHT22;43322;52.230;5.702;2022-11-11T13:31:30;13.40;99.90
23719;DHT22;43322;52.230;5.702;2022-11-11T13:34:04;13.30;99.90
23719;DHT22;43322;52.230;5.702;2022-11-11T13:36:40;13.10;99.90
23719;DHT22;43322;52.230;5.702;2022-11-11T13:39:24;13.10;99.90
23719;DHT22;43322;52.230;5.702;2022-11-11T13:41:54;12.90;99.90
23719;DHT22;43322;52.230;5.702;2022-11-11T13:44:24;12.80;99.90
23719;DHT22;43322;52.230;5.702;2022-11-11T13:46:59;12.80;99.90
23719;DHT22;43322;52.230;5.702;2022-11-11T13:49:31;12.80;99.90
23719;DHT22;43322;52.230;5.702;2022-11-11T13:51:59;12.70;99.90
23719;DHT22;43322;52.230;5.702;2022-11-11T13:54:30;12.70;99.90
23719;DHT22;43322;52.230;5.702;2022-11-11T13:57:04;12.60;99.90
23719;DHT22;43322;52.230;5.702;2022-11-11T13:59:36;12.50;99.90
23719;DHT22;43322;52.230;5.702;2022-11-11T14:02:29;12.40;99.90
23719;DHT22;43322;52.230;5.702;2022-11-11T14:05:16;12.40;99.90
23719;DHT22;43322;52.230;5.702;2022-11-11T14:07:51;12.40;99.90
23719;DHT22;43322;52.230;5.702;2022-11-11T14:10:48;12.30;99.90
23719;DHT22;43322;52.230;5.702;2022-11-11T14:13:34;12.30;99.90
23719;DHT22;43322;52.230;5.702;2022-11-11T14:16:01;12.30;99.90
23719;DHT22;43322;52.230;5.702;2022-11-11T14:18:38;12.40;99.90
23719;DHT22;43322;52.230;5.702;2022-11-11T14:21:07;12.40;99.90
23719;DHT22;43322;52.230;5.702;2022-11-11T14:23:36;12.40;99.90
23719;DHT22;43322;52.230;5.702;2022-11-11T14:26:23;12.20;99.90
23719;DHT22;43322;52.230;5.702;2022-11-11T14:28:52;12.20;99.90
23719;DHT22;43322;52.230;5.702;2022-11-11T14:34:53;12.10;99.90
23719;DHT22;43322;52.230;5.702;2022-11-11T14:37:38;12.10;99.90
23719;DHT22;43322;52.230;5.702;2022-11-11T14:40:10;12.00;99.90
23719;DHT22;43322;52.230;5.702;2022-11-11T14:42:46;11.90;99.90
23719;DHT22;43322;52.230;5.702;2022-11-11T14:48:53;11.80;99.90
23719;DHT22;43322;52.230;5.702;2022-11-11T14:51:46;11.80;99.90
23719;DHT22;43322;52.230;5.702;2022-11-11T14:54:23;11.70;99.90
23719;DHT22;43322;52.230;5.702;2022-11-11T14:56:57;11.90;99.90
23719;DHT22;43322;52.230;5.702;2022-11-11T14:59:28;11.70;99.90
23719;DHT22;43322;52.230;5.702;2022-11-11T15:01:57;11.70;99.90
23719;DHT22;43322;52.230;5.702;2022-11-11T15:04:25;11.60;99.90
23719;DHT22;43322;52.230;5.702;2022-11-11T15:06:56;11.70;99.90
23719;DHT22;43322;52.230;5.702;2022-11-11T15:09:51;11.60;99.90
23719;DHT22;43322;52.230;5.702;2022-11-11T15:12:32;11.50;99.90
23719;DHT22;43322;52.230;5.702;2022-11-11T15:15:09;11.50;99.90
23719;DHT22;43322;52.230;5.702;2022-11-11T15:17:44;11.50;99.90
23719;DHT22;43322;52.230;5.702;2022-11-11T15:20:40;11.40;99.90
23719;DHT22;43322;52.230;5.702;2022-11-11T15:23:16;11.30;99.90
23719;DHT22;43322;52.230;5.702;2022-11-11T15:25:50;11.30;99.90
23719;DHT22;43322;52.230;5.702;2022-11-11T15:28:39;11.20;99.90
23719;DHT22;43322;52.230;5.702;2022-11-11T15:31:19;11.20;99.90
23719;DHT22;43322;52.230;5.702;2022-11-11T15:33:55;11.10;99.90
23719;DHT22;43322;52.230;5.702;2022-11-11T15:36:38;11.00;99.90
23719;DHT22;43322;52.230;5.702;2022-11-11T15:39:12;11.00;99.90
23719;DHT22;43322;52.230;5.702;2022-11-11T15:41:41;11.00;99.90
23719;DHT22;43322;52.230;5.702;2022-11-11T15:44:14;10.90;99.90
23719;DHT22;43322;52.230;5.702;2022-11-11T15:46:46;10.90;99.90
23719;DHT22;43322;52.230;5.702;2022-11-11T15:49:14;11.00;99.90
23719;DHT22;43322;52.230;5.702;2022-11-11T15:51:41;10.90;99.90
23719;DHT22;43322;52.230;5.702;2022-11-11T15:54:15;10.80;99.90
23719;DHT22;43322;52.230;5.702;2022-11-11T15:56:44;10.70;99.90
23719;DHT22;43322;52.230;5.702;2022-11-11T15:59:17;10.60;99.90
23719;DHT22;43322;52.230;5.702;2022-11-11T16:01:48;10.60;99.90
23719;DHT22;43322;52.230;5.702;2022-11-11T16:04:17;10.60;99.90
23719;DHT22;43322;52.230;5.702;2022-11-11T16:06:45;10.60;99.90
23719;DHT22;43322;52.230;5.702;2022-11-11T16:09:14;10.60;99.90
23719;DHT22;43322;52.230;5.702;2022-11-11T16:11:42;10.50;99.90
23719;DHT22;43322;52.230;5.702;2022-11-11T16:14:18;10.50;99.90
23719;DHT22;43322;52.230;5.702;2022-11-11T16:16:49;10.40;99.90
23719;DHT22;43322;52.230;5.702;2022-11-11T16:19:25;10.50;99.90